sensor_id;sensor_type;location;lat;lon;timestamp;pressure;altitude;pressure_sealevel;temperature;humidity
31595;BME280;18200;48.726;8.892;2023-04-01T00:01:15;95415.41;;;21.12;37.00
31595;BME280;18200;48.726;8.892;2023-04-01T00:05:16;95407.75;;;20.12;39.14
31595;BME280;18200;48.726;8.892;2023-04-01T00:09:17;95416.38;;;20.51;38.65
31595;BME280;18200;48.726;8.892;2023-04-01T00:13:18;95395.72;;;21.68;36.25
31595;BME280;18200;48.726;8.892;2023-04-01T00:17:18;95401.53;;;20.52;37.72
31595;BME280;18200;48.726;8.892;2023-04-01T00:21:20;95407.84;;;20.31;38.77
31595;BME280;18200;48.726;8.892;2023-04-01T00:25:20;95397.50;;;21.80;35.95
31595;BME280;18200;48.726;8.892;2023-04-01T00:29:21;95417.53;;;20.23;38.45
31595;BME280;18200;48.726;8.892;2023-04-01T00:33:21;95403.84;;;21.95;35.93
31595;BME280;18200;48.726;8.892;2023-04-01T00:37:22;95423.72;;;21.26;37.48
31595;BME280;18200;48.726;8.892;2023-04-01T00:41:22;95415.50;;;20.81;38.43
31595;BME280;18200;48.726;8.892;2023-04-01T00:45:43;95411.41;;;20.76;39.29
31595;BME280;18200;48.726;8.892;2023-04-01T00:49:46;95426.13;;;19.81;40.86
31595;BME280;18200;48.726;8.892;2023-04-01T00:53:52;95415.41;;;19.56;40.74
31595;BME280;18200;48.726;8.892;2023-04-01T00:57:53;95410.13;;;21.86;36.99
31595;BME280;18200;48.726;8.892;2023-04-01T01:01:54;95408.31;;;22.49;35.76
31595;BME280;18200;48.726;8.892;2023-04-01T01:10:32;95415.66;;;22.66;36.09
31595;BME280;18200;48.726;8.892;2023-04-01T01:19:38;95414.47;;;22.02;36.64
31595;BME280;18200;48.726;8.892;2023-04-01T01:36:15;95438.44;;;21.20;38.30
31595;BME280;18200;48.726;8.892;2023-04-01T01:40:18;95426.75;;;21.37;37.87
31595;BME280;18200;48.726;8.892;2023-04-01T01:44:20;95417.72;;;21.64;37.62
31595;BME280;18200;48.726;8.892;2023-04-01T01:48:23;95408.16;;;21.87;36.98
31595;BME280;18200;48.726;8.892;2023-04-01T01:52:27;95406.88;;;21.97;36.53
31595;BME280;18200;48.726;8.892;2023-04-01T01:56:29;95401.50;;;21.60;37.38
31595;BME280;18200;48.726;8.892;2023-04-01T02:00:29;95403.88;;;21.77;36.85
31595;BME280;18200;48.726;8.892;2023-04-01T02:04:31;95410.00;;;21.62;36.53
31595;BME280;18200;48.726;8.892;2023-04-01T02:08:48;95400.72;;;22.44;35.73
31595;BME280;18200;48.726;8.892;2023-04-01T02:12:50;95406.13;;;21.27;37.57
31595;BME280;18200;48.726;8.892;2023-04-01T02:16:58;95420.16;;;22.46;35.10
31595;BME280;18200;48.726;8.892;2023-04-01T02:21:02;95421.03;;;22.28;35.37
31595;BME280;18200;48.726;8.892;2023-04-01T02:25:08;95417.59;;;22.18;35.27
31595;BME280;18200;48.726;8.892;2023-04-01T02:29:11;95414.94;;;21.31;36.59
31595;BME280;18200;48.726;8.892;2023-04-01T02:33:12;95406.63;;;21.86;35.28
31595;BME280;18200;48.726;8.892;2023-04-01T02:37:13;95421.84;;;21.59;35.65
31595;BME280;18200;48.726;8.892;2023-04-01T02:41:14;95421.94;;;21.92;35.06
31595;BME280;18200;48.726;8.892;2023-04-01T02:45:14;95423.59;;;21.81;35.56
31595;BME280;18200;48.726;8.892;2023-04-01T02:49:15;95418.94;;;22.23;34.40
31595;BME280;18200;48.726;8.892;2023-04-01T02:53:16;95414.03;;;22.27;33.84
31595;BME280;18200;48.726;8.892;2023-04-01T02:57:17;95418.50;;;21.64;35.09
31595;BME280;18200;48.726;8.892;2023-04-01T03:01:17;95414.13;;;22.09;34.37
31595;BME280;18200;48.726;8.892;2023-04-01T03:05:18;95431.59;;;21.51;35.24
31595;BME280;18200;48.726;8.892;2023-04-01T03:09:19;95415.81;;;21.37;35.82
31595;BME280;18200;48.726;8.892;2023-04-01T03:13:19;95412.84;;;21.68;36.09
31595;BME280;18200;48.726;8.892;2023-04-01T03:17:20;95412.44;;;21.60;35.42
31595;BME280;18200;48.726;8.892;2023-04-01T03:21:23;95424.03;;;21.28;35.90
31595;BME280;18200;48.726;8.892;2023-04-01T03:25:23;95406.78;;;21.82;34.93
31595;BME280;18200;48.726;8.892;2023-04-01T03:29:24;95418.00;;;21.75;34.79
31595;BME280;18200;48.726;8.892;2023-04-01T03:33:25;95415.16;;;21.70;35.35
31595;BME280;18200;48.726;8.892;2023-04-01T03:37:25;95413.81;;;20.56;36.82
31595;BME280;18200;48.726;8.892;2023-04-01T03:41:26;95415.81;;;21.37;35.34
31595;BME280;18200;48.726;8.892;2023-04-01T03:45:27;95409.59;;;21.01;36.19
31595;BME280;18200;48.726;8.892;2023-04-01T03:49:27;95416.75;;;20.89;36.48
31595;BME280;18200;48.726;8.892;2023-04-01T03:53:27;95411.59;;;21.18;35.79
31595;BME280;18200;48.726;8.892;2023-04-01T03:57:31;95405.53;;;21.05;35.73
31595;BME280;18200;48.726;8.892;2023-04-01T04:01:36;95396.44;;;21.86;33.94
31595;BME280;18200;48.726;8.892;2023-04-01T04:05:36;95405.50;;;20.87;35.86
31595;BME280;18200;48.726;8.892;2023-04-01T04:09:37;95401.91;;;19.83;37.92
31595;BME280;18200;48.726;8.892;2023-04-01T04:13:38;95407.28;;;20.05;37.88
31595;BME280;18200;48.726;8.892;2023-04-01T04:17:38;95409.13;;;20.75;35.76
31595;BME280;18200;48.726;8.892;2023-04-01T04:21:40;95413.00;;;19.58;38.57
31595;BME280;18200;48.726;8.892;2023-04-01T04:25:41;95416.03;;;19.60;38.25
31595;BME280;18200;48.726;8.892;2023-04-01T04:29:41;95419.94;;;19.59;38.67
31595;BME280;18200;48.726;8.892;2023-04-01T04:33:42;95416.25;;;20.54;37.14
31595;BME280;18200;48.726;8.892;2023-04-01T04:37:42;95414.75;;;21.26;35.81
31595;BME280;18200;48.726;8.892;2023-04-01T04:41:43;95405.06;;;19.51;39.27
31595;BME280;18200;48.726;8.892;2023-04-01T04:45:44;95400.03;;;20.87;37.03
31595;BME280;18200;48.726;8.892;2023-04-01T04:49:45;95409.06;;;19.16;39.91
31595;BME280;18200;48.726;8.892;2023-04-01T04:53:46;95400.75;;;19.63;39.57
31595;BME280;18200;48.726;8.892;2023-04-01T04:57:46;95400.03;;;20.87;37.10
31595;BME280;18200;48.726;8.892;2023-04-01T05:01:47;95392.91;;;20.71;37.46
31595;BME280;18200;48.726;8.892;2023-04-01T05:05:52;95390.34;;;20.77;37.20
31595;BME280;18200;48.726;8.892;2023-04-01T05:09:53;95382.09;;;21.40;35.50
31595;BME280;18200;48.726;8.892;2023-04-01T05:13:53;95380.72;;;21.54;34.69
31595;BME280;18200;48.726;8.892;2023-04-01T05:17:54;95378.66;;;21.31;35.39
31595;BME280;18200;48.726;8.892;2023-04-01T05:21:54;95380.31;;;20.92;36.04
31595;BME280;18200;48.726;8.892;2023-04-01T05:25:55;95375.16;;;20.85;35.66
31595;BME280;18200;48.726;8.892;2023-04-01T05:29:57;95364.75;;;20.07;37.29
31595;BME280;18200;48.726;8.892;2023-04-01T05:34:14;95357.13;;;19.32;38.67
31595;BME280;18200;48.726;8.892;2023-04-01T05:38:14;95360.28;;;20.50;36.10
31595;BME280;18200;48.726;8.892;2023-04-01T05:42:15;95354.66;;;20.26;36.66
31595;BME280;18200;48.726;8.892;2023-04-01T05:46:16;95371.53;;;20.97;35.31
31595;BME280;18200;48.726;8.892;2023-04-01T05:50:24;95363.19;;;21.10;35.33
31595;BME280;18200;48.726;8.892;2023-04-01T05:54:25;95369.81;;;19.87;37.83
31595;BME280;18200;48.726;8.892;2023-04-01T05:58:25;95357.41;;;20.99;35.07
31595;BME280;18200;48.726;8.892;2023-04-01T06:02:26;95361.19;;;20.29;36.99
31595;BME280;18200;48.726;8.892;2023-04-01T06:06:28;95357.88;;;21.24;34.89
31595;BME280;18200;48.726;8.892;2023-04-01T06:10:55;95361.97;;;21.02;35.71
31595;BME280;18200;48.726;8.892;2023-04-01T06:15:25;95367.72;;;20.76;35.69
31595;BME280;18200;48.726;8.892;2023-04-01T06:19:46;95365.59;;;20.89;36.82
31595;BME280;18200;48.726;8.892;2023-04-01T06:32:56;95371.22;;;21.22;36.13
31595;BME280;18200;48.726;8.892;2023-04-01T06:42:02;95359.25;;;21.02;36.66
31595;BME280;18200;48.726;8.892;2023-04-01T06:50:40;95370.78;;;20.02;39.49
31595;BME280;18200;48.726;8.892;2023-04-01T06:59:50;95365.59;;;20.89;37.76
31595;BME280;18200;48.726;8.892;2023-04-01T07:04:31;95366.28;;;20.18;38.00
31595;BME280;18200;48.726;8.892;2023-04-01T07:08:37;95361.09;;;20.10;39.93
31595;BME280;18200;48.726;8.892;2023-04-01T07:12:54;95362.53;;;21.93;36.22
31595;BME280;18200;48.726;8.892;2023-04-01T07:17:17;95370.94;;;21.20;37.62
31595;BME280;18200;48.726;8.892;2023-04-01T07:21:26;95373.63;;;20.48;38.40
31595;BME280;18200;48.726;8.892;2023-04-01T07:25:37;95375.63;;;20.83;38.02
31595;BME280;18200;48.726;8.892;2023-04-01T07:30:01;95379.72;;;21.06;37.74
31595;BME280;18200;48.726;8.892;2023-04-01T07:38:36;95378.56;;;21.67;37.06
31595;BME280;18200;48.726;8.892;2023-04-01T08:00:05;95384.56;;;21.89;37.29
31595;BME280;18200;48.726;8.892;2023-04-01T08:09:15;95390.59;;;22.02;37.25
31595;BME280;18200;48.726;8.892;2023-04-01T08:13:53;95396.63;;;21.64;37.09
31595;BME280;18200;48.726;8.892;2023-04-01T08:18:50;95397.41;;;22.07;36.88
31595;BME280;18200;48.726;8.892;2023-04-01T08:23:07;95402.16;;;20.83;38.97
31595;BME280;18200;48.726;8.892;2023-04-01T08:27:51;95402.38;;;21.76;37.78
31595;BME280;18200;48.726;8.892;2023-04-01T08:32:00;95410.38;;;21.37;38.19
31595;BME280;18200;48.726;8.892;2023-04-01T09:11:20;95402.88;;;22.39;38.03
31595;BME280;18200;48.726;8.892;2023-04-01T09:15:53;95410.44;;;18.77;42.41
31595;BME280;18200;48.726;8.892;2023-04-01T09:41:57;95427.34;;;21.50;38.32
31595;BME280;18200;48.726;8.892;2023-04-01T09:46:18;95437.94;;;21.85;36.98
31595;BME280;18200;48.726;8.892;2023-04-01T09:55:04;95440.28;;;19.98;40.93
31595;BME280;18200;48.726;8.892;2023-04-01T09:59:29;95435.50;;;21.59;38.04
31595;BME280;18200;48.726;8.892;2023-04-01T10:09:01;95436.13;;;23.18;34.79
31595;BME280;18200;48.726;8.892;2023-04-01T10:21:59;95434.50;;;20.27;39.05
31595;BME280;18200;48.726;8.892;2023-04-01T10:58:27;95455.88;;;21.68;36.93
31595;BME280;18200;48.726;8.892;2023-04-01T11:03:45;95453.91;;;21.59;36.89
31595;BME280;18200;48.726;8.892;2023-04-01T11:22:03;95453.97;;;23.13;33.95
31595;BME280;18200;48.726;8.892;2023-04-01T11:31:15;95450.16;;;23.35;34.64
31595;BME280;18200;48.726;8.892;2023-04-01T11:35:51;95465.56;;;20.96;38.67
31595;BME280;18200;48.726;8.892;2023-04-01T11:44:40;95470.75;;;21.85;36.60
31595;BME280;18200;48.726;8.892;2023-04-01T12:01:34;95495.13;;;20.31;38.88
31595;BME280;18200;48.726;8.892;2023-04-01T12:06:35;95477.75;;;21.58;37.58
31595;BME280;18200;48.726;8.892;2023-04-01T12:18:42;95511.75;;;21.57;35.97
31595;BME280;18200;48.726;8.892;2023-04-01T12:28:08;95496.13;;;22.27;36.11
31595;BME280;18200;48.726;8.892;2023-04-01T12:36:19;95498.91;;;23.31;34.20
31595;BME280;18200;48.726;8.892;2023-04-01T12:44:49;95519.00;;;22.06;36.18
31595;BME280;18200;48.726;8.892;2023-04-01T13:14:57;95519.16;;;19.92;38.65
31595;BME280;18200;48.726;8.892;2023-04-01T13:19:18;95518.03;;;20.82;39.59
31595;BME280;18200;48.726;8.892;2023-04-01T13:27:50;95517.09;;;22.30;36.85
31595;BME280;18200;48.726;8.892;2023-04-01T13:36:14;95531.41;;;22.99;34.38
31595;BME280;18200;48.726;8.892;2023-04-01T13:45:00;95536.72;;;20.44;38.01
31595;BME280;18200;48.726;8.892;2023-04-01T13:49:29;95538.38;;;19.89;39.05
31595;BME280;18200;48.726;8.892;2023-04-01T14:15:29;95544.25;;;21.55;37.07
31595;BME280;18200;48.726;8.892;2023-04-01T14:28:31;95544.88;;;21.50;37.58
31595;BME280;18200;48.726;8.892;2023-04-01T14:37:11;95550.78;;;22.45;35.69
31595;BME280;18200;48.726;8.892;2023-04-01T14:41:51;95557.78;;;22.46;35.64
31595;BME280;18200;48.726;8.892;2023-04-01T14:46:14;95556.41;;;21.91;36.37
31595;BME280;18200;48.726;8.892;2023-04-01T14:50:24;95560.28;;;22.26;35.94
31595;BME280;18200;48.726;8.892;2023-04-01T14:54:37;95563.66;;;22.21;36.10
31595;BME280;18200;48.726;8.892;2023-04-01T14:58:46;95559.66;;;22.40;35.80
31595;BME280;18200;48.726;8.892;2023-04-01T15:03:07;95566.34;;;19.80;40.55
31595;BME280;18200;48.726;8.892;2023-04-01T15:16:23;95568.38;;;22.71;35.73
31595;BME280;18200;48.726;8.892;2023-04-01T15:33:43;95592.41;;;21.89;35.67
31595;BME280;18200;48.726;8.892;2023-04-01T15:46:26;95612.53;;;22.55;35.65
31595;BME280;18200;48.726;8.892;2023-04-01T15:58:56;95613.47;;;19.68;39.97
31595;BME280;18200;48.726;8.892;2023-04-01T16:03:19;95601.75;;;20.45;39.07
31595;BME280;18200;48.726;8.892;2023-04-01T16:07:48;95600.78;;;22.64;35.27
31595;BME280;18200;48.726;8.892;2023-04-01T16:12:23;95612.63;;;21.83;36.57
31595;BME280;18200;48.726;8.892;2023-04-01T16:20:45;95607.72;;;20.53;38.39
31595;BME280;18200;48.726;8.892;2023-04-01T16:25:17;95606.78;;;22.44;35.65
31595;BME280;18200;48.726;8.892;2023-04-01T16:37:45;95630.84;;;19.83;39.77
31595;BME280;18200;48.726;8.892;2023-04-01T16:41:52;95608.78;;;21.44;37.06
31595;BME280;18200;48.726;8.892;2023-04-01T16:46:26;95609.31;;;22.98;34.65
31595;BME280;18200;48.726;8.892;2023-04-01T16:50:41;95605.66;;;23.58;33.49
31595;BME280;18200;48.726;8.892;2023-04-01T16:55:20;95611.69;;;22.13;36.32
31595;BME280;18200;48.726;8.892;2023-04-01T16:59:27;95611.13;;;23.58;33.34
31595;BME280;18200;48.726;8.892;2023-04-01T17:03:51;95614.34;;;24.18;32.61
31595;BME280;18200;48.726;8.892;2023-04-01T17:08:07;95611.69;;;25.31;31.73
31595;BME280;18200;48.726;8.892;2023-04-01T17:12:45;95615.19;;;24.10;32.27
31595;BME280;18200;48.726;8.892;2023-04-01T17:21:47;95637.75;;;24.87;32.01
31595;BME280;18200;48.726;8.892;2023-04-01T18:05:32;95740.91;;;19.52;41.86
31595;BME280;18200;48.726;8.892;2023-04-01T18:18:56;95721.84;;;21.37;36.60
31595;BME280;18200;48.726;8.892;2023-04-01T18:27:40;95731.56;;;21.29;35.86
31595;BME280;18200;48.726;8.892;2023-04-01T18:31:51;95742.16;;;21.27;35.52
31595;BME280;18200;48.726;8.892;2023-04-01T18:36:09;95743.63;;;22.35;34.06
31595;BME280;18200;48.726;8.892;2023-04-01T18:44:52;95752.16;;;22.19;34.92
31595;BME280;18200;48.726;8.892;2023-04-01T18:53:45;95750.00;;;22.86;33.76
31595;BME280;18200;48.726;8.892;2023-04-01T18:57:52;95759.44;;;22.31;34.10
31595;BME280;18200;48.726;8.892;2023-04-01T19:06:33;95766.84;;;22.03;34.46
31595;BME280;18200;48.726;8.892;2023-04-01T19:28:47;95759.72;;;22.24;34.66
31595;BME280;18200;48.726;8.892;2023-04-01T19:33:08;95748.78;;;22.06;35.47
31595;BME280;18200;48.726;8.892;2023-04-01T19:41:40;95747.22;;;21.96;35.08
31595;BME280;18200;48.726;8.892;2023-04-01T19:54:38;95778.31;;;22.65;34.38
31595;BME280;18200;48.726;8.892;2023-04-01T20:02:58;95778.28;;;22.47;34.36
31595;BME280;18200;48.726;8.892;2023-04-01T20:07:18;95785.91;;;22.52;34.89
31595;BME280;18200;48.726;8.892;2023-04-01T20:15:34;95793.03;;;22.40;34.62
31595;BME280;18200;48.726;8.892;2023-04-01T20:28:04;95805.19;;;22.58;34.00
31595;BME280;18200;48.726;8.892;2023-04-01T20:40:44;95831.25;;;22.71;34.36
31595;BME280;18200;48.726;8.892;2023-04-01T20:49:38;95822.84;;;22.29;35.19
31595;BME280;18200;48.726;8.892;2023-04-01T20:58:38;95840.03;;;22.48;34.97
31595;BME280;18200;48.726;8.892;2023-04-01T21:02:56;95836.69;;;22.35;35.13
31595;BME280;18200;48.726;8.892;2023-04-01T21:07:22;95828.72;;;22.10;35.77
31595;BME280;18200;48.726;8.892;2023-04-01T21:12:01;95830.16;;;21.84;36.25
31595;BME280;18200;48.726;8.892;2023-04-01T21:20:53;95842.63;;;21.85;35.72
31595;BME280;18200;48.726;8.892;2023-04-01T21:25:06;95846.81;;;21.77;35.84
31595;BME280;18200;48.726;8.892;2023-04-01T21:29:42;95849.25;;;22.23;34.79
31595;BME280;18200;48.726;8.892;2023-04-01T21:42:26;95858.91;;;22.46;34.37
31595;BME280;18200;48.726;8.892;2023-04-01T21:51:19;95867.25;;;21.94;34.70
31595;BME280;18200;48.726;8.892;2023-04-01T22:00:17;95879.47;;;22.02;34.91
31595;BME280;18200;48.726;8.892;2023-04-01T22:04:42;95881.72;;;21.63;34.92
31595;BME280;18200;48.726;8.892;2023-04-01T22:09:18;95884.97;;;22.78;33.46
31595;BME280;18200;48.726;8.892;2023-04-01T22:13:32;95888.66;;;22.26;34.33
31595;BME280;18200;48.726;8.892;2023-04-01T22:17:36;95886.31;;;22.73;33.31
31595;BME280;18200;48.726;8.892;2023-04-01T22:26:27;95900.53;;;22.41;34.10
31595;BME280;18200;48.726;8.892;2023-04-01T22:30:36;95896.38;;;22.67;33.06
31595;BME280;18200;48.726;8.892;2023-04-01T22:39:38;95903.69;;;22.21;34.40
31595;BME280;18200;48.726;8.892;2023-04-01T22:43:46;95899.66;;;22.44;33.51
31595;BME280;18200;48.726;8.892;2023-04-01T22:48:11;95906.00;;;22.32;33.75
31595;BME280;18200;48.726;8.892;2023-04-01T22:56:40;95903.28;;;21.92;34.06
31595;BME280;18200;48.726;8.892;2023-04-01T23:00:52;95908.69;;;22.14;33.73
31595;BME280;18200;48.726;8.892;2023-04-01T23:04:57;95916.63;;;22.21;34.03
31595;BME280;18200;48.726;8.892;2023-04-01T23:09:12;95917.53;;;22.27;33.94
31595;BME280;18200;48.726;8.892;2023-04-01T23:13:18;95914.13;;;22.05;33.78
31595;BME280;18200;48.726;8.892;2023-04-01T23:17:35;95921.94;;;21.85;34.39
31595;BME280;18200;48.726;8.892;2023-04-01T23:21:53;95918.44;;;21.84;34.32
31595;BME280;18200;48.726;8.892;2023-04-01T23:34:38;95935.69;;;22.03;33.83
31595;BME280;18200;48.726;8.892;2023-04-01T23:38:40;95940.53;;;21.99;33.88
31595;BME280;18200;48.726;8.892;2023-04-01T23:42:41;95944.47;;;21.98;34.00
31595;BME280;18200;48.726;8.892;2023-04-01T23:46:44;95942.97;;;21.97;33.91
31595;BME280;18200;48.726;8.892;2023-04-01T23:50:46;95952.94;;;22.21;34.43
31595;BME280;18200;48.726;8.892;2023-04-01T23:54:51;95964.78;;;20.88;35.89
31595;BME280;18200;48.726;8.892;2023-04-01T23:58:52;95949.97;;;21.76;34.98
